createdAt,value
2019-05-16T00:00:29.418Z,8.90
2019-05-16T00:02:58.927Z,8.80
2019-05-16T00:05:28.286Z,8.80
2019-05-16T00:07:58.971Z,8.80
2019-05-16T00:10:28.157Z,8.80
2019-05-16T00:12:59.689Z,8.80
2019-05-16T00:15:28.711Z,8.90
2019-05-16T00:17:58.427Z,8.90
2019-05-16T00:20:28.380Z,9.00
2019-05-16T00:22:58.935Z,8.90
2019-05-16T00:25:28.647Z,8.90
2019-05-16T00:27:58.754Z,8.90
2019-05-16T00:30:28.822Z,8.90
2019-05-16T00:32:58.824Z,8.80
2019-05-16T00:35:28.582Z,8.70
2019-05-16T00:37:58.970Z,8.70
2019-05-16T00:40:28.011Z,8.60
2019-05-16T00:42:58.774Z,8.60
2019-05-16T00:45:29.490Z,8.60
2019-05-16T00:47:58.454Z,8.70
2019-05-16T00:50:28.847Z,8.50
2019-05-16T00:52:58.923Z,8.50
2019-05-16T00:55:28.802Z,8.40
2019-05-16T00:57:58.351Z,8.40
2019-05-16T01:00:45.322Z,8.50
2019-05-16T01:03:14.649Z,8.50
2019-05-16T01:05:44.149Z,8.50
2019-05-16T01:08:13.084Z,8.50
2019-05-16T01:10:41.986Z,8.50
2019-05-16T01:13:10.771Z,8.40
2019-05-16T01:15:39.707Z,8.40
2019-05-16T01:18:10.417Z,8.30
2019-05-16T01:20:39.474Z,8.10
2019-05-16T01:23:08.947Z,7.90
2019-05-16T01:25:40.602Z,7.80
2019-05-16T01:28:09.403Z,7.70
2019-05-16T01:30:38.203Z,7.60
2019-05-16T01:33:08.834Z,7.60
2019-05-16T01:35:38.556Z,7.40
2019-05-16T01:38:08.648Z,7.40
2019-05-16T01:40:38.807Z,7.30
2019-05-16T01:43:08.588Z,7.20
2019-05-16T01:45:38.452Z,7.10
2019-05-16T01:48:08.237Z,7.00
2019-05-16T01:50:38.777Z,7.10
2019-05-16T01:53:08.789Z,7.20
2019-05-16T01:55:38.269Z,7.10
2019-05-16T01:58:08.002Z,7.10
2019-05-16T02:00:47.983Z,6.90
2019-05-16T02:03:08.277Z,6.90
2019-05-16T02:05:38.759Z,6.80
2019-05-16T02:08:08.956Z,6.80
2019-05-16T02:10:37.996Z,6.80
2019-05-16T02:13:08.478Z,6.60
2019-05-16T02:15:38.416Z,6.50
2019-05-16T02:18:08.191Z,6.40
2019-05-16T02:20:39.208Z,6.20
2019-05-16T02:23:08.024Z,6.10
2019-05-16T02:25:38.132Z,6.20
2019-05-16T02:28:07.653Z,6.20
2019-05-16T02:30:36.278Z,6.10
2019-05-16T02:33:04.910Z,6.10
2019-05-16T02:35:33.594Z,6.00
2019-05-16T02:38:02.255Z,6.00
2019-05-16T02:40:32.351Z,5.90
2019-05-16T02:43:01.893Z,5.90
2019-05-16T02:45:32.437Z,5.70
2019-05-16T02:48:02.091Z,5.60
2019-05-16T02:50:31.733Z,5.60
2019-05-16T02:53:01.375Z,5.70
2019-05-16T02:55:30.915Z,5.70
2019-05-16T02:58:00.828Z,5.60
2019-05-16T03:00:41.872Z,5.70
2019-05-16T03:03:07.619Z,5.60
2019-05-16T03:05:36.318Z,5.60
2019-05-16T03:08:05.530Z,5.60
2019-05-16T03:10:34.265Z,5.60
2019-05-16T03:13:02.959Z,5.60
2019-05-16T03:15:31.707Z,5.70
2019-05-16T03:18:04.296Z,5.80
2019-05-16T03:20:33.877Z,5.70
2019-05-16T03:23:02.577Z,5.70
2019-05-16T03:25:31.290Z,5.80
2019-05-16T03:28:02.016Z,5.70
2019-05-16T03:30:35.303Z,5.70
2019-05-16T03:33:05.209Z,5.70
2019-05-16T03:35:34.115Z,5.80
2019-05-16T03:38:05.160Z,5.90
2019-05-16T03:40:34.431Z,5.90
2019-05-16T03:43:03.020Z,6.00
2019-05-16T03:45:32.252Z,6.00
2019-05-16T03:48:02.806Z,6.00
2019-05-16T03:50:31.300Z,6.00
2019-05-16T03:53:01.582Z,6.10
2019-05-16T03:55:32.653Z,6.10
2019-05-16T03:58:01.164Z,6.10
2019-05-16T04:00:52.320Z,6.10
2019-05-16T04:03:21.310Z,6.20
2019-05-16T04:05:52.136Z,6.20
2019-05-16T04:08:24.646Z,6.30
2019-05-16T04:10:52.067Z,6.20
2019-05-16T04:13:21.686Z,6.20
2019-05-16T04:15:52.550Z,6.20
2019-05-16T04:18:23.871Z,6.20
2019-05-16T04:20:53.010Z,6.90
2019-05-16T04:23:21.915Z,6.90
2019-05-16T04:25:52.207Z,7.00
2019-05-16T04:28:22.506Z,7.00
2019-05-16T04:30:52.192Z,7.10
2019-05-16T04:33:22.426Z,7.30
2019-05-16T04:35:53.281Z,7.40
2019-05-16T04:38:34.989Z,7.50
2019-05-16T04:40:52.940Z,7.60
2019-05-16T04:43:22.319Z,7.80
2019-05-16T04:45:52.560Z,7.90
2019-05-16T04:48:22.744Z,8.00
2019-05-16T04:50:52.345Z,8.20
2019-05-16T04:53:21.529Z,8.30
2019-05-16T04:55:51.639Z,8.50
2019-05-16T04:58:23.386Z,8.70
2019-05-16T05:00:51.998Z,8.80
2019-05-16T05:03:21.992Z,9.00
2019-05-16T05:05:51.571Z,9.10
2019-05-16T05:08:22.061Z,9.20
2019-05-16T05:10:51.761Z,9.30
2019-05-16T05:13:22.134Z,9.40
2019-05-16T05:15:51.548Z,9.60
2019-05-16T05:18:21.241Z,9.60
2019-05-16T05:20:52.524Z,9.80
2019-05-16T05:23:21.250Z,9.90
2019-05-16T05:25:51.503Z,10.10
2019-05-16T05:28:21.259Z,10.20
2019-05-16T05:30:50.501Z,10.40
2019-05-16T05:33:20.958Z,10.50
2019-05-16T05:35:50.589Z,10.50
2019-05-16T05:38:21.293Z,10.70
2019-05-16T05:40:51.086Z,10.70
2019-05-16T05:43:21.555Z,10.80
2019-05-16T05:45:51.671Z,10.90
2019-05-16T05:48:21.495Z,11.00
2019-05-16T05:50:51.161Z,11.00
2019-05-16T05:53:22.341Z,11.00
2019-05-16T05:55:51.856Z,11.00
2019-05-16T05:58:21.222Z,11.00
2019-05-16T06:00:51.832Z,11.10
2019-05-16T06:03:22.362Z,11.20
2019-05-16T06:05:50.739Z,11.40
2019-05-16T06:08:20.456Z,11.40
2019-05-16T06:10:50.371Z,11.50
2019-05-16T06:13:20.579Z,11.50
2019-05-16T06:15:50.927Z,11.60
2019-05-16T06:18:20.389Z,11.70
2019-05-16T06:20:51.196Z,11.70
2019-05-16T06:23:20.653Z,11.70
2019-05-16T06:25:50.786Z,11.80
2019-05-16T06:28:20.888Z,11.90
2019-05-16T06:30:51.534Z,12.00
2019-05-16T06:33:20.281Z,11.90
2019-05-16T06:35:51.273Z,11.90
2019-05-16T06:38:21.068Z,11.90
2019-05-16T06:40:52.626Z,12.00
2019-05-16T06:43:21.467Z,12.10
2019-05-16T06:45:51.391Z,12.20
2019-05-16T06:48:21.154Z,12.40
2019-05-16T06:50:51.586Z,12.40
2019-05-16T06:53:21.158Z,12.50
2019-05-16T06:55:50.113Z,12.50
2019-05-16T06:58:21.743Z,12.40
2019-05-16T07:00:52.885Z,12.50
2019-05-16T07:03:21.503Z,12.70
2019-05-16T07:05:50.638Z,12.60
2019-05-16T07:08:20.613Z,12.60
2019-05-16T07:10:50.945Z,12.70
2019-05-16T07:13:20.092Z,12.80
2019-05-16T07:15:50.254Z,12.90
2019-05-16T07:18:20.814Z,13.00
2019-05-16T07:20:51.007Z,13.00
2019-05-16T07:23:20.977Z,12.80
2019-05-16T07:25:50.647Z,12.80
2019-05-16T07:28:20.818Z,12.80
2019-05-16T07:30:50.186Z,13.00
2019-05-16T07:33:21.229Z,13.00
2019-05-16T07:35:51.206Z,13.30
2019-05-16T07:38:20.302Z,13.30
2019-05-16T07:40:51.441Z,13.10
2019-05-16T07:43:20.713Z,13.20
2019-05-16T07:45:51.297Z,13.20
2019-05-16T07:48:22.319Z,13.20
2019-05-16T07:50:51.160Z,13.30
2019-05-16T07:53:21.398Z,13.50
2019-05-16T07:55:50.929Z,13.70
2019-05-16T07:58:21.979Z,13.70
2019-05-16T08:01:01.826Z,13.80
2019-05-16T08:03:22.368Z,13.90
2019-05-16T08:05:53.638Z,14.00
2019-05-16T08:08:24.009Z,14.00
2019-05-16T08:10:52.646Z,14.30
2019-05-16T08:13:21.429Z,14.00
2019-05-16T08:18:21.484Z,13.90
2019-05-16T08:20:52.436Z,14.00
2019-05-16T08:23:22.190Z,14.10
2019-05-16T08:25:51.507Z,14.00
2019-05-16T08:28:21.593Z,14.00
2019-05-16T08:30:52.881Z,14.10
2019-05-16T08:38:21.864Z,14.50
2019-05-16T08:43:22.580Z,14.60
2019-05-16T08:45:51.918Z,14.80
2019-05-16T08:50:05.380Z,14.50
2019-05-16T08:50:05.719Z,13.80
2019-05-16T08:50:54.718Z,14.70
2019-05-16T08:53:22.031Z,14.60
2019-05-16T08:55:51.200Z,14.80
2019-05-16T08:58:22.623Z,15.10
2019-05-16T09:00:55.307Z,15.00
2019-05-16T09:03:22.225Z,14.90
2019-05-16T09:05:53.350Z,14.70
2019-05-16T09:08:21.321Z,14.80
2019-05-16T09:10:21.437Z,14.60
2019-05-16T09:10:21.438Z,14.20
2019-05-16T09:10:37.862Z,14.40
2019-05-16T09:11:00.856Z,14.90
2019-05-16T09:13:20.366Z,15.00
2019-05-16T09:15:49.151Z,15.40
2019-05-16T09:18:20.637Z,15.40
2019-05-16T09:20:50.291Z,15.00
2019-05-16T09:23:19.442Z,15.20
2019-05-16T09:25:49.078Z,15.20
2019-05-16T09:28:17.994Z,15.50
2019-05-16T09:30:47.099Z,15.50
2019-05-16T09:33:17.620Z,15.30
2019-05-16T09:35:50.092Z,15.20
2019-05-16T09:38:20.263Z,15.70
2019-05-16T09:40:52.299Z,15.80
2019-05-16T09:43:18.181Z,15.70
2019-05-16T09:45:47.388Z,15.70
2019-05-16T09:48:18.870Z,16.10
2019-05-16T09:50:47.109Z,16.00
2019-05-16T09:53:16.972Z,15.90
2019-05-16T09:55:46.972Z,16.00
2019-05-16T09:58:18.321Z,15.90
2019-05-16T10:00:47.695Z,15.80
2019-05-16T10:03:20.066Z,15.90
2019-05-16T10:05:47.056Z,16.10
2019-05-16T10:08:20.077Z,16.10
2019-05-16T10:10:48.781Z,15.90
2019-05-16T10:13:18.243Z,15.90
2019-05-16T10:15:47.472Z,16.00
2019-05-16T10:18:16.920Z,16.20
2019-05-16T10:20:45.859Z,16.60
2019-05-16T10:23:18.012Z,16.40
2019-05-16T10:25:48.034Z,16.50
2019-05-16T10:28:17.410Z,16.50
2019-05-16T10:30:49.734Z,16.60
2019-05-16T10:33:18.907Z,16.80
2019-05-16T10:35:47.929Z,16.80
2019-05-16T10:38:16.992Z,16.40
2019-05-16T10:40:47.465Z,16.60
2019-05-16T10:43:17.489Z,16.70
2019-05-16T10:45:46.518Z,16.80
2019-05-16T10:48:17.602Z,16.90
2019-05-16T10:50:47.794Z,16.50
2019-05-16T10:53:39.800Z,16.80
2019-05-16T10:55:47.717Z,16.70
2019-05-16T10:58:33.032Z,17.00
2019-05-16T11:01:07.630Z,17.30
2019-05-16T11:03:17.261Z,18.20
2019-05-16T11:06:01.177Z,18.80
2019-05-16T11:08:16.015Z,19.50
2019-05-16T11:10:44.858Z,19.90
2019-05-16T11:13:13.557Z,20.50
2019-05-16T11:15:42.113Z,20.00
2019-05-16T11:18:10.830Z,19.80
2019-05-16T11:20:39.613Z,20.00
2019-05-16T11:23:08.244Z,20.50
2019-05-16T11:25:36.918Z,20.20
2019-05-16T11:28:07.322Z,20.20
2019-05-16T11:30:37.623Z,20.50
2019-05-16T11:33:07.615Z,20.60
2019-05-16T11:35:38.189Z,22.00
2019-05-16T11:38:07.380Z,21.60
2019-05-16T11:40:36.094Z,21.60
2019-05-16T11:43:11.293Z,21.70
2019-05-16T11:45:37.720Z,22.40
2019-05-16T11:48:06.416Z,22.30
2019-05-16T11:50:37.331Z,21.20
2019-05-16T11:53:07.306Z,22.40
2019-05-16T11:55:50.623Z,22.50
2019-05-16T11:58:06.770Z,23.10
2019-05-16T12:00:37.263Z,23.30
2019-05-16T12:03:06.049Z,23.40
2019-05-16T12:05:37.160Z,24.90
2019-05-16T12:08:07.763Z,23.00
2019-05-16T12:10:36.665Z,23.20
2019-05-16T12:13:09.036Z,23.90
2019-05-16T12:15:36.716Z,24.20
2019-05-16T12:18:08.492Z,24.30
2019-05-16T12:20:37.760Z,22.80
2019-05-16T12:23:07.923Z,23.10
2019-05-16T12:25:36.976Z,23.60
2019-05-16T12:28:08.082Z,22.80
2019-05-16T12:30:37.642Z,23.30
2019-05-16T12:33:08.899Z,23.80
2019-05-16T12:35:37.534Z,24.00
2019-05-16T12:38:08.124Z,23.20
2019-05-16T12:40:37.635Z,23.40
2019-05-16T12:43:07.816Z,24.90
2019-05-16T12:45:38.787Z,23.90
2019-05-16T12:48:07.203Z,23.00
2019-05-16T12:50:38.854Z,24.30
2019-05-16T12:53:08.073Z,25.40
2019-05-16T12:55:37.584Z,24.80
2019-05-16T12:58:14.076Z,24.30
2019-05-16T13:00:37.151Z,24.20
2019-05-16T13:03:07.133Z,24.40
2019-05-16T13:05:37.667Z,25.20
2019-05-16T13:08:06.420Z,25.50
2019-05-16T13:10:37.760Z,25.20
2019-05-16T13:13:07.852Z,23.70
2019-05-16T13:15:38.283Z,23.40
2019-05-16T13:18:07.990Z,23.50
2019-05-16T13:20:39.262Z,23.80
2019-05-16T13:23:14.569Z,24.60
2019-05-16T13:25:37.602Z,24.90
2019-05-16T13:28:08.205Z,25.20
2019-05-16T13:30:37.745Z,25.20
2019-05-16T13:33:07.221Z,25.00
2019-05-16T13:35:37.098Z,25.30
2019-05-16T13:38:07.941Z,24.30
2019-05-16T13:40:36.388Z,24.50
2019-05-16T13:43:09.714Z,25.80
2019-05-16T13:45:37.777Z,26.20
2019-05-16T13:48:08.095Z,25.60
2019-05-16T13:50:39.694Z,25.30
2019-05-16T13:53:07.736Z,24.50
2019-05-16T13:55:37.748Z,24.10
2019-05-16T13:58:07.769Z,24.70
2019-05-16T14:00:37.567Z,25.60
2019-05-16T14:03:07.485Z,25.20
2019-05-16T14:05:37.972Z,25.60
2019-05-16T14:08:08.522Z,25.70
2019-05-16T14:10:37.720Z,25.80
2019-05-16T14:13:07.451Z,26.30
2019-05-16T14:15:36.842Z,25.50
2019-05-16T14:18:07.641Z,24.60
2019-05-16T14:20:38.464Z,25.30
2019-05-16T14:23:08.448Z,25.80
2019-05-16T14:25:38.314Z,25.30
2019-05-16T14:30:38.196Z,26.10
2019-05-16T14:33:13.869Z,25.20
2019-05-16T14:35:37.810Z,24.80
2019-05-16T14:38:06.601Z,25.10
2019-05-16T14:40:37.397Z,25.20
2019-05-16T14:43:08.197Z,26.00
2019-05-16T14:45:37.230Z,26.80
2019-05-16T14:48:07.522Z,26.50
2019-05-16T14:50:37.497Z,26.80
2019-05-16T14:53:07.317Z,25.80
2019-05-16T14:55:38.467Z,26.50
2019-05-16T14:58:07.559Z,26.20
2019-05-16T15:00:38.355Z,25.40
2019-05-16T15:03:08.355Z,25.50
2019-05-16T15:05:42.680Z,25.30
2019-05-16T15:08:08.640Z,25.80
2019-05-16T15:10:37.873Z,26.00
2019-05-16T15:13:07.879Z,26.80
2019-05-16T15:15:37.644Z,26.00
2019-05-16T15:18:08.193Z,25.40
2019-05-16T15:20:37.251Z,25.60
2019-05-16T15:23:07.719Z,26.40
2019-05-16T15:25:37.454Z,26.00
2019-05-16T15:28:07.853Z,26.60
2019-05-16T15:30:39.146Z,27.30
2019-05-16T15:33:08.443Z,26.70
2019-05-16T15:35:38.156Z,26.70
2019-05-16T15:38:08.159Z,26.50
2019-05-16T15:40:37.590Z,26.50
2019-05-16T15:43:07.852Z,25.60
2019-05-16T15:45:43.322Z,25.50
2019-05-16T15:48:12.361Z,26.10
2019-05-16T15:50:41.153Z,25.80
2019-05-16T15:53:10.164Z,25.50
2019-05-16T15:55:38.796Z,25.00
2019-05-16T15:58:10.312Z,25.00
2019-05-16T16:00:40.949Z,25.80
2019-05-16T16:03:09.750Z,25.90
2019-05-16T16:05:38.450Z,26.40
2019-05-16T16:08:07.138Z,25.30
2019-05-16T16:10:37.995Z,26.20
2019-05-16T16:13:07.460Z,25.70
2019-05-16T16:15:50.399Z,24.70
2019-05-16T16:18:09.237Z,24.30
2019-05-16T16:20:38.047Z,23.80
2019-05-16T16:23:07.034Z,24.80
2019-05-16T16:25:36.038Z,25.80
2019-05-16T16:28:07.297Z,25.40
2019-05-16T16:30:37.349Z,25.80
2019-05-16T16:33:20.767Z,24.80
2019-05-16T16:35:37.901Z,25.20
2019-05-16T16:38:07.159Z,25.70
2019-05-16T16:40:37.526Z,26.60
2019-05-16T16:43:08.014Z,26.10
2019-05-16T16:45:36.646Z,27.10
2019-05-16T16:48:07.823Z,26.80
2019-05-16T16:50:37.099Z,26.90
2019-05-16T16:53:07.122Z,26.20
2019-05-16T16:55:37.075Z,25.20
2019-05-16T16:58:09.247Z,24.90
2019-05-16T17:00:37.774Z,25.00
2019-05-16T17:03:10.357Z,24.30
2019-05-16T17:05:37.428Z,24.20
2019-05-16T17:08:07.679Z,24.20
2019-05-16T17:10:37.973Z,24.10
2019-05-16T17:13:07.085Z,24.30
2019-05-16T17:15:36.756Z,23.90
2019-05-16T17:18:07.096Z,23.60
2019-05-16T17:20:37.122Z,23.20
2019-05-16T17:23:06.904Z,23.40
2019-05-16T17:25:36.684Z,23.90
2019-05-16T17:28:17.389Z,23.70
2019-05-16T17:30:47.032Z,23.60
2019-05-16T17:33:18.762Z,23.20
2019-05-16T17:35:49.609Z,22.70
2019-05-16T17:38:17.796Z,21.80
2019-05-16T17:40:46.691Z,21.10
2019-05-16T17:43:19.353Z,20.30
2019-05-16T17:45:48.147Z,20.00
2019-05-16T17:48:17.510Z,19.90
2019-05-16T17:50:47.662Z,19.90
2019-05-16T17:53:17.425Z,19.70
2019-05-16T17:55:47.263Z,19.50
2019-05-16T17:58:16.545Z,19.80
2019-05-16T18:00:47.121Z,19.50
2019-05-16T18:03:17.334Z,20.00
2019-05-16T18:05:49.043Z,20.20
2019-05-16T18:08:17.824Z,19.60
2019-05-16T18:10:47.339Z,19.50
2019-05-16T18:13:16.015Z,19.40
2019-05-16T18:15:46.866Z,19.00
2019-05-16T18:18:17.485Z,19.10
2019-05-16T18:20:55.788Z,18.80
2019-05-16T18:23:16.465Z,18.60
2019-05-16T18:25:46.974Z,18.70
2019-05-16T18:28:17.664Z,18.60
2019-05-16T18:30:47.265Z,18.40
2019-05-16T18:33:16.606Z,18.30
2019-05-16T18:35:46.601Z,17.80
2019-05-16T18:38:15.443Z,17.70
2019-05-16T18:40:44.091Z,17.60
2019-05-16T18:43:12.963Z,17.40
2019-05-16T18:45:41.694Z,17.30
2019-05-16T18:48:10.334Z,17.30
2019-05-16T18:50:39.078Z,17.10
2019-05-16T18:53:07.822Z,17.10
2019-05-16T18:55:37.736Z,16.90
2019-05-16T18:58:08.648Z,16.90
2019-05-16T19:00:37.505Z,16.60
2019-05-16T19:03:07.651Z,16.50
2019-05-16T19:05:38.130Z,16.30
2019-05-16T19:08:07.520Z,16.40
2019-05-16T19:10:37.110Z,16.40
2019-05-16T19:13:08.179Z,16.20
2019-05-16T19:15:37.543Z,15.80
2019-05-16T19:18:07.015Z,15.60
2019-05-16T19:20:37.612Z,15.50
2019-05-16T19:23:07.581Z,15.30
2019-05-16T19:25:36.515Z,15.10
2019-05-16T19:28:06.968Z,15.00
2019-05-16T19:30:37.474Z,14.80
2019-05-16T19:33:07.184Z,14.70
2019-05-16T19:35:36.312Z,14.60
2019-05-16T19:38:06.798Z,14.30
2019-05-16T19:40:37.771Z,14.30
2019-05-16T19:43:07.281Z,14.20
2019-05-16T19:45:37.318Z,14.20
2019-05-16T19:48:08.194Z,14.10
2019-05-16T19:50:37.406Z,14.10
2019-05-16T19:53:07.617Z,14.10
2019-05-16T19:55:36.832Z,13.90
2019-05-16T19:58:06.780Z,13.90
2019-05-16T20:00:37.484Z,13.90
2019-05-16T20:03:07.715Z,13.80
2019-05-16T20:05:37.534Z,13.80
2019-05-16T20:08:06.780Z,13.60
2019-05-16T20:10:36.770Z,13.60
2019-05-16T20:13:07.880Z,13.50
2019-05-16T20:15:36.814Z,13.40
2019-05-16T20:18:08.735Z,13.30
2019-05-16T20:20:37.445Z,13.30
2019-05-16T20:23:06.502Z,13.30
2019-05-16T20:25:36.579Z,13.30
2019-05-16T20:28:08.460Z,13.30
2019-05-16T20:30:37.239Z,13.20
2019-05-16T20:33:09.193Z,13.20
2019-05-16T20:35:37.498Z,13.20
2019-05-16T20:38:07.259Z,13.00
2019-05-16T20:40:37.523Z,12.90
2019-05-16T20:43:07.708Z,12.90
2019-05-16T20:45:43.491Z,12.80
2019-05-16T20:48:15.328Z,12.90
2019-05-16T20:50:42.744Z,12.90
2019-05-16T20:53:11.364Z,12.70
2019-05-16T20:55:39.948Z,12.50
2019-05-16T20:58:08.576Z,12.50
2019-05-16T21:00:37.981Z,12.40
2019-05-16T21:03:07.263Z,12.30
2019-05-16T21:05:38.312Z,12.30
2019-05-16T21:08:06.645Z,12.20
2019-05-16T21:10:36.268Z,12.20
2019-05-16T21:13:07.156Z,12.00
2019-05-16T21:15:37.216Z,12.00
2019-05-16T21:18:07.549Z,11.90
2019-05-16T21:20:38.895Z,11.90
2019-05-16T21:23:07.718Z,11.80
2019-05-16T21:25:37.113Z,11.80
2019-05-16T21:28:07.926Z,11.70
2019-05-16T21:30:36.728Z,11.70
2019-05-16T21:33:05.634Z,11.70
2019-05-16T21:35:36.300Z,11.70
2019-05-16T21:38:08.757Z,11.70
2019-05-16T21:40:37.154Z,11.60
2019-05-16T21:43:07.563Z,11.60
2019-05-16T21:45:37.173Z,11.50
2019-05-16T21:48:07.430Z,11.40
2019-05-16T21:50:36.841Z,11.40
2019-05-16T21:53:08.894Z,11.40
2019-05-16T21:55:37.619Z,11.30
2019-05-16T21:58:06.244Z,11.20
2019-05-16T22:00:44.308Z,11.20
2019-05-16T22:03:13.370Z,11.10
2019-05-16T22:05:42.149Z,11.00
2019-05-16T22:08:16.900Z,10.90
2019-05-16T22:10:46.707Z,10.80
2019-05-16T22:13:15.598Z,10.80
2019-05-16T22:15:46.324Z,10.70
2019-05-16T22:18:16.634Z,10.60
2019-05-16T22:20:48.995Z,10.60
2019-05-16T22:23:17.310Z,10.50
2019-05-16T22:25:49.293Z,10.40
2019-05-16T22:28:22.686Z,10.40
2019-05-16T22:30:51.550Z,10.40
2019-05-16T22:33:20.310Z,10.40
2019-05-16T22:35:50.715Z,10.30
2019-05-16T22:38:19.288Z,10.20
2019-05-16T22:40:49.218Z,10.00
2019-05-16T22:43:21.996Z,9.90
2019-05-16T22:45:50.657Z,10.00
2019-05-16T22:48:19.276Z,10.00
2019-05-16T22:50:50.591Z,9.90
2019-05-16T22:53:19.309Z,9.90
2019-05-16T22:55:49.621Z,9.80
2019-05-16T22:58:18.253Z,9.80
2019-05-16T23:00:47.282Z,9.70
2019-05-16T23:03:17.401Z,9.60
2019-05-16T23:05:47.373Z,9.50
2019-05-16T23:08:18.821Z,9.60
2019-05-16T23:10:47.559Z,9.50
2019-05-16T23:13:16.960Z,9.50
2019-05-16T23:15:45.882Z,9.50
2019-05-16T23:18:14.440Z,9.50
2019-05-16T23:20:43.133Z,9.60
2019-05-16T23:23:11.676Z,9.60
2019-05-16T23:25:40.360Z,9.60
2019-05-16T23:28:08.994Z,9.40
2019-05-16T23:30:40.267Z,9.30
2019-05-16T23:33:10.686Z,9.40
2019-05-16T23:35:39.232Z,9.30
2019-05-16T23:38:18.578Z,9.40
2019-05-16T23:40:42.195Z,9.30
2019-05-16T23:43:22.900Z,9.30
2019-05-16T23:45:51.370Z,9.20
2019-05-16T23:48:20.003Z,9.20
2019-05-16T23:50:48.609Z,9.10
2019-05-16T23:53:17.251Z,9.10
2019-05-16T23:55:47.115Z,9.10
2019-05-16T23:58:16.349Z,9.10
